Kempner, TX (76539)

3:18 AM CDT on August 31, 2015 (GMT -0500)
Pecan Valley | | Change Station
CLOSE
Current Station
Personal Weather Station
Location: Kempner, TX
Elevation: 942 ft
Nearby Weather Stations

Elev 942 ft 31.11 °N, 97.99 °W | Updated 6 seconds ago

Partly Cloudy
Partly Cloudy
71.0 °F
Feels Like 71.0 °F
N
0.0
Wind Variable Wind from SE
Gusts 1.0 mph

Today
High -- | Low -- °F
--% Chance of Precip.
Yesterday
High -- | Low -- °F
Precip. -- in
7:07 AM 7:56 PM
Waning Gibbous, 96% visible
Pressure 29.95 in
Visibility 10.0 miles
Clouds Few 19000 ft
Dew Point 67 °F
Humidity 88%
Rainfall 0.00 in
Snow Depth Not available.
UV 0 out of 12
Pollen 6.30 out of 12
Air Quality Not available.
Flu Activity Not available.
METAR KGRK 310758Z AUTO 17005KT 10SM FEW190 23/20 A2998 RMK AO2 SLP141 T02270195
Pressure 29.95 in
Visibility 10.0 miles
Clouds Few 19000 ft
Dew Point 67 °F
Humidity 88%
Rainfall 0.00 in
Snow Depth Not available.
UV 0 out of 12
Pollen 6.30 out of 12
Air Quality Not available.
Flu Activity Not available.
METAR KGRK 310758Z AUTO 17005KT 10SM FEW190 23/20 A2998 RMK AO2 SLP141 T02270195

10-Day Weather Forecast

×

Almanac

Astronomy

Aug. 31, 2015 Rise Set
Actual Time
Civil Twilight
Nautical Twilight
Astronomical Twilight
Moon
Length of Visible Light
Length of Day
Tomorrow will be .
, % of the Moon is Illuminated

Today's Extremes

State Highs State Lows

Community

WunderPhotos

Upload Photos

1,851,220 photos uploaded!

WunderBlogs® & News

Nearby

Air Quality

  Air Quality AQ Index Pollutant
Not available.

Snow Depth

Station Depth Elevation

Earthquake Activity

City Distance Mag. Time & Date
Minimum magnitude displayed is 2.5.

Coastal Water Temperatures

Place Temperature

Stations

Nearby Weather Stations

Station Location Temp. Windchill Dew Point Humidity Wind Precip. Elev Updated Type